sensor_id;sensor_type;location;lat;lon;timestamp;P1;durP1;ratioP1;P2;durP2;ratioP2
51525;SDS011;37611;51.794;21.590;2023-04-03T00:02:07;5.20;;;2.40;;
51525;SDS011;37611;51.794;21.590;2023-04-03T00:06:08;4.40;;;2.00;;
51525;SDS011;37611;51.794;21.590;2023-04-03T00:10:12;3.70;;;1.70;;
51525;SDS011;37611;51.794;21.590;2023-04-03T00:14:15;5.20;;;2.30;;
51525;SDS011;37611;51.794;21.590;2023-04-03T00:18:17;5.60;;;2.50;;
51525;SDS011;37611;51.794;21.590;2023-04-03T00:22:19;4.90;;;2.40;;
51525;SDS011;37611;51.794;21.590;2023-04-03T00:26:21;5.10;;;1.80;;
51525;SDS011;37611;51.794;21.590;2023-04-03T00:30:23;5.00;;;2.10;;
51525;SDS011;37611;51.794;21.590;2023-04-03T00:34:25;5.10;;;1.90;;
51525;SDS011;37611;51.794;21.590;2023-04-03T00:38:27;5.10;;;1.70;;
51525;SDS011;37611;51.794;21.590;2023-04-03T00:42:29;4.00;;;1.90;;
51525;SDS011;37611;51.794;21.590;2023-04-03T00:46:31;4.10;;;1.90;;
51525;SDS011;37611;51.794;21.590;2023-04-03T00:50:34;5.40;;;2.30;;
51525;SDS011;37611;51.794;21.590;2023-04-03T00:54:38;2.20;;;1.30;;
51525;SDS011;37611;51.794;21.590;2023-04-03T00:58:44;8.10;;;2.90;;
51525;SDS011;37611;51.794;21.590;2023-04-03T01:02:52;4.30;;;2.20;;
51525;SDS011;37611;51.794;21.590;2023-04-03T01:06:55;4.00;;;2.00;;
51525;SDS011;37611;51.794;21.590;2023-04-03T01:10:59;4.20;;;2.00;;
51525;SDS011;37611;51.794;21.590;2023-04-03T01:15:23;8.10;;;2.60;;
51525;SDS011;37611;51.794;21.590;2023-04-03T01:19:24;5.60;;;2.50;;
51525;SDS011;37611;51.794;21.590;2023-04-03T01:23:30;4.40;;;2.00;;
51525;SDS011;37611;51.794;21.590;2023-04-03T01:27:39;5.60;;;1.70;;
51525;SDS011;37611;51.794;21.590;2023-04-03T01:35:47;4.00;;;1.70;;
51525;SDS011;37611;51.794;21.590;2023-04-03T01:39:49;5.40;;;1.90;;
51525;SDS011;37611;51.794;21.590;2023-04-03T01:43:51;2.40;;;1.30;;
51525;SDS011;37611;51.794;21.590;2023-04-03T01:47:53;2.50;;;1.50;;
51525;SDS011;37611;51.794;21.590;2023-04-03T01:51:55;3.10;;;1.80;;
51525;SDS011;37611;51.794;21.590;2023-04-03T01:55:57;5.50;;;2.00;;
51525;SDS011;37611;51.794;21.590;2023-04-03T01:59:59;3.20;;;2.00;;
51525;SDS011;37611;51.794;21.590;2023-04-03T02:04:01;4.40;;;1.90;;
51525;SDS011;37611;51.794;21.590;2023-04-03T02:08:03;3.60;;;1.70;;
51525;SDS011;37611;51.794;21.590;2023-04-03T02:12:06;4.40;;;1.50;;
51525;SDS011;37611;51.794;21.590;2023-04-03T02:16:09;3.80;;;1.50;;
51525;SDS011;37611;51.794;21.590;2023-04-03T02:20:12;2.90;;;1.60;;
51525;SDS011;37611;51.794;21.590;2023-04-03T02:24:14;3.10;;;1.40;;
51525;SDS011;37611;51.794;21.590;2023-04-03T02:28:16;6.50;;;2.20;;
51525;SDS011;37611;51.794;21.590;2023-04-03T02:32:17;5.60;;;1.80;;
51525;SDS011;37611;51.794;21.590;2023-04-03T02:36:19;2.80;;;1.60;;
51525;SDS011;37611;51.794;21.590;2023-04-03T02:40:21;2.60;;;1.30;;
51525;SDS011;37611;51.794;21.590;2023-04-03T02:44:23;4.90;;;2.20;;
51525;SDS011;37611;51.794;21.590;2023-04-03T02:48:25;5.20;;;2.30;;
51525;SDS011;37611;51.794;21.590;2023-04-03T02:52:27;3.10;;;1.50;;
51525;SDS011;37611;51.794;21.590;2023-04-03T02:56:29;3.70;;;2.20;;
51525;SDS011;37611;51.794;21.590;2023-04-03T03:00:31;4.70;;;1.90;;
51525;SDS011;37611;51.794;21.590;2023-04-03T03:04:34;4.70;;;2.50;;
51525;SDS011;37611;51.794;21.590;2023-04-03T03:08:36;7.10;;;1.80;;
51525;SDS011;37611;51.794;21.590;2023-04-03T03:12:38;5.20;;;1.70;;
51525;SDS011;37611;51.794;21.590;2023-04-03T03:16:40;3.60;;;1.80;;
51525;SDS011;37611;51.794;21.590;2023-04-03T03:20:41;3.20;;;1.50;;
51525;SDS011;37611;51.794;21.590;2023-04-03T03:24:43;5.30;;;2.00;;
51525;SDS011;37611;51.794;21.590;2023-04-03T03:28:45;3.00;;;1.50;;
51525;SDS011;37611;51.794;21.590;2023-04-03T03:32:47;5.60;;;2.10;;
51525;SDS011;37611;51.794;21.590;2023-04-03T03:36:49;4.70;;;2.10;;
51525;SDS011;37611;51.794;21.590;2023-04-03T03:40:51;4.30;;;2.10;;
51525;SDS011;37611;51.794;21.590;2023-04-03T03:44:54;4.70;;;2.20;;
51525;SDS011;37611;51.794;21.590;2023-04-03T03:48:56;5.60;;;2.50;;
51525;SDS011;37611;51.794;21.590;2023-04-03T03:52:58;4.10;;;2.40;;
51525;SDS011;37611;51.794;21.590;2023-04-03T03:56:59;5.30;;;2.30;;
51525;SDS011;37611;51.794;21.590;2023-04-03T04:01:02;4.30;;;2.20;;
51525;SDS011;37611;51.794;21.590;2023-04-03T04:05:06;5.60;;;2.20;;
51525;SDS011;37611;51.794;21.590;2023-04-03T04:09:09;4.50;;;2.00;;
51525;SDS011;37611;51.794;21.590;2023-04-03T04:13:11;7.10;;;3.60;;
51525;SDS011;37611;51.794;21.590;2023-04-03T04:17:13;5.90;;;3.40;;
51525;SDS011;37611;51.794;21.590;2023-04-03T04:21:15;7.60;;;3.00;;
51525;SDS011;37611;51.794;21.590;2023-04-03T04:25:17;5.90;;;2.40;;
51525;SDS011;37611;51.794;21.590;2023-04-03T04:29:19;7.20;;;2.30;;
51525;SDS011;37611;51.794;21.590;2023-04-03T04:33:20;4.40;;;2.30;;
51525;SDS011;37611;51.794;21.590;2023-04-03T04:37:22;5.70;;;2.00;;
51525;SDS011;37611;51.794;21.590;2023-04-03T04:41:24;6.40;;;1.80;;
51525;SDS011;37611;51.794;21.590;2023-04-03T04:45:26;6.30;;;2.60;;
51525;SDS011;37611;51.794;21.590;2023-04-03T04:49:28;4.80;;;1.80;;
51525;SDS011;37611;51.794;21.590;2023-04-03T04:53:30;7.80;;;3.00;;
51525;SDS011;37611;51.794;21.590;2023-04-03T04:57:32;5.10;;;2.30;;
51525;SDS011;37611;51.794;21.590;2023-04-03T05:01:34;6.20;;;2.50;;
51525;SDS011;37611;51.794;21.590;2023-04-03T05:05:37;4.60;;;2.20;;
51525;SDS011;37611;51.794;21.590;2023-04-03T05:09:39;7.80;;;2.70;;
51525;SDS011;37611;51.794;21.590;2023-04-03T05:13:43;4.50;;;2.30;;
51525;SDS011;37611;51.794;21.590;2023-04-03T05:17:45;4.90;;;2.60;;
51525;SDS011;37611;51.794;21.590;2023-04-03T05:21:47;5.10;;;3.00;;
51525;SDS011;37611;51.794;21.590;2023-04-03T05:25:50;8.00;;;3.50;;
51525;SDS011;37611;51.794;21.590;2023-04-03T05:29:52;9.40;;;3.60;;
51525;SDS011;37611;51.794;21.590;2023-04-03T05:33:54;7.40;;;3.90;;
51525;SDS011;37611;51.794;21.590;2023-04-03T05:37:56;12.50;;;4.20;;
51525;SDS011;37611;51.794;21.590;2023-04-03T05:41:58;5.70;;;3.30;;
51525;SDS011;37611;51.794;21.590;2023-04-03T05:46:00;8.00;;;3.60;;
51525;SDS011;37611;51.794;21.590;2023-04-03T05:50:02;6.80;;;3.40;;
51525;SDS011;37611;51.794;21.590;2023-04-03T05:54:26;8.10;;;3.50;;
51525;SDS011;37611;51.794;21.590;2023-04-03T05:58:28;5.80;;;3.20;;
51525;SDS011;37611;51.794;21.590;2023-04-03T06:02:30;8.80;;;4.40;;
51525;SDS011;37611;51.794;21.590;2023-04-03T06:06:46;5.20;;;3.00;;
51525;SDS011;37611;51.794;21.590;2023-04-03T06:10:58;7.10;;;2.60;;
51525;SDS011;37611;51.794;21.590;2023-04-03T06:15:00;4.80;;;2.30;;
51525;SDS011;37611;51.794;21.590;2023-04-03T06:19:03;5.00;;;2.90;;
51525;SDS011;37611;51.794;21.590;2023-04-03T06:23:05;11.10;;;5.00;;
51525;SDS011;37611;51.794;21.590;2023-04-03T06:27:07;10.30;;;3.40;;
51525;SDS011;37611;51.794;21.590;2023-04-03T06:31:10;9.00;;;4.70;;
51525;SDS011;37611;51.794;21.590;2023-04-03T06:35:12;9.80;;;3.90;;
51525;SDS011;37611;51.794;21.590;2023-04-03T06:39:15;4.70;;;2.80;;
51525;SDS011;37611;51.794;21.590;2023-04-03T06:43:24;4.60;;;3.20;;
51525;SDS011;37611;51.794;21.590;2023-04-03T06:47:25;6.60;;;3.30;;
51525;SDS011;37611;51.794;21.590;2023-04-03T06:51:28;8.10;;;3.80;;
51525;SDS011;37611;51.794;21.590;2023-04-03T06:55:31;6.80;;;2.60;;
51525;SDS011;37611;51.794;21.590;2023-04-03T06:59:33;8.00;;;5.30;;
51525;SDS011;37611;51.794;21.590;2023-04-03T07:03:36;4.70;;;3.10;;
51525;SDS011;37611;51.794;21.590;2023-04-03T07:07:39;23.60;;;13.00;;
51525;SDS011;37611;51.794;21.590;2023-04-03T07:11:42;6.40;;;4.70;;
51525;SDS011;37611;51.794;21.590;2023-04-03T07:15:44;7.60;;;4.10;;
51525;SDS011;37611;51.794;21.590;2023-04-03T07:19:47;6.30;;;3.00;;
51525;SDS011;37611;51.794;21.590;2023-04-03T07:23:48;6.20;;;3.30;;
51525;SDS011;37611;51.794;21.590;2023-04-03T07:27:50;5.30;;;3.00;;
51525;SDS011;37611;51.794;21.590;2023-04-03T07:31:52;5.70;;;2.80;;
51525;SDS011;37611;51.794;21.590;2023-04-03T07:35:54;4.10;;;2.80;;
51525;SDS011;37611;51.794;21.590;2023-04-03T07:39:56;5.90;;;3.00;;
51525;SDS011;37611;51.794;21.590;2023-04-03T07:43:59;5.90;;;2.80;;
51525;SDS011;37611;51.794;21.590;2023-04-03T07:48:01;6.20;;;3.80;;
51525;SDS011;37611;51.794;21.590;2023-04-03T07:52:04;7.50;;;2.90;;
51525;SDS011;37611;51.794;21.590;2023-04-03T07:56:06;8.30;;;3.80;;
51525;SDS011;37611;51.794;21.590;2023-04-03T08:00:08;4.90;;;2.70;;
51525;SDS011;37611;51.794;21.590;2023-04-03T08:04:10;4.60;;;2.50;;
51525;SDS011;37611;51.794;21.590;2023-04-03T08:08:13;4.10;;;2.60;;
51525;SDS011;37611;51.794;21.590;2023-04-03T08:12:17;7.20;;;3.10;;
51525;SDS011;37611;51.794;21.590;2023-04-03T08:16:20;6.90;;;2.60;;
51525;SDS011;37611;51.794;21.590;2023-04-03T08:20:24;5.50;;;2.90;;
51525;SDS011;37611;51.794;21.590;2023-04-03T08:24:26;4.40;;;2.80;;
51525;SDS011;37611;51.794;21.590;2023-04-03T08:28:28;4.50;;;3.00;;
51525;SDS011;37611;51.794;21.590;2023-04-03T08:32:30;3.50;;;2.10;;
51525;SDS011;37611;51.794;21.590;2023-04-03T08:36:32;4.30;;;2.30;;
51525;SDS011;37611;51.794;21.590;2023-04-03T08:40:33;3.70;;;2.20;;
51525;SDS011;37611;51.794;21.590;2023-04-03T08:44:52;3.60;;;2.00;;
51525;SDS011;37611;51.794;21.590;2023-04-03T08:49:02;5.00;;;2.70;;
51525;SDS011;37611;51.794;21.590;2023-04-03T08:53:05;6.20;;;2.40;;
51525;SDS011;37611;51.794;21.590;2023-04-03T08:57:12;2.90;;;1.60;;
51525;SDS011;37611;51.794;21.590;2023-04-03T09:01:23;4.10;;;2.20;;
51525;SDS011;37611;51.794;21.590;2023-04-03T09:10:24;3.30;;;1.70;;
51525;SDS011;37611;51.794;21.590;2023-04-03T09:14:38;4.40;;;2.30;;
51525;SDS011;37611;51.794;21.590;2023-04-03T09:18:47;7.50;;;3.80;;
51525;SDS011;37611;51.794;21.590;2023-04-03T09:22:54;3.40;;;2.10;;
51525;SDS011;37611;51.794;21.590;2023-04-03T09:26:58;2.70;;;1.70;;
51525;SDS011;37611;51.794;21.590;2023-04-03T09:35:28;6.30;;;3.30;;
51525;SDS011;37611;51.794;21.590;2023-04-03T09:39:48;4.70;;;2.80;;
51525;SDS011;37611;51.794;21.590;2023-04-03T09:43:57;4.20;;;3.00;;
51525;SDS011;37611;51.794;21.590;2023-04-03T09:48:12;2.70;;;1.70;;
51525;SDS011;37611;51.794;21.590;2023-04-03T09:52:23;3.60;;;2.30;;
51525;SDS011;37611;51.794;21.590;2023-04-03T09:56:27;3.00;;;1.90;;
51525;SDS011;37611;51.794;21.590;2023-04-03T10:00:33;4.40;;;2.70;;
51525;SDS011;37611;51.794;21.590;2023-04-03T10:04:39;4.00;;;2.00;;
51525;SDS011;37611;51.794;21.590;2023-04-03T10:08:42;5.10;;;2.40;;
51525;SDS011;37611;51.794;21.590;2023-04-03T10:12:44;4.00;;;1.90;;
51525;SDS011;37611;51.794;21.590;2023-04-03T10:16:48;5.70;;;3.20;;
51525;SDS011;37611;51.794;21.590;2023-04-03T10:21:10;3.30;;;2.20;;
51525;SDS011;37611;51.794;21.590;2023-04-03T10:34:04;4.50;;;2.10;;
51525;SDS011;37611;51.794;21.590;2023-04-03T10:46:49;2.70;;;1.80;;
51525;SDS011;37611;51.794;21.590;2023-04-03T10:50:58;2.90;;;2.00;;
51525;SDS011;37611;51.794;21.590;2023-04-03T10:59:53;4.40;;;2.60;;
51525;SDS011;37611;51.794;21.590;2023-04-03T11:04:00;2.40;;;1.60;;
51525;SDS011;37611;51.794;21.590;2023-04-03T11:08:24;3.60;;;1.70;;
51525;SDS011;37611;51.794;21.590;2023-04-03T11:12:44;3.80;;;1.90;;
51525;SDS011;37611;51.794;21.590;2023-04-03T11:16:53;2.00;;;1.40;;
51525;SDS011;37611;51.794;21.590;2023-04-03T11:21:12;2.50;;;1.60;;
51525;SDS011;37611;51.794;21.590;2023-04-03T11:25:23;2.90;;;1.40;;
51525;SDS011;37611;51.794;21.590;2023-04-03T11:29:32;6.50;;;3.50;;
51525;SDS011;37611;51.794;21.590;2023-04-03T11:37:58;6.00;;;3.30;;
51525;SDS011;37611;51.794;21.590;2023-04-03T11:42:16;7.60;;;5.40;;
51525;SDS011;37611;51.794;21.590;2023-04-03T11:50:56;12.20;;;6.60;;
51525;SDS011;37611;51.794;21.590;2023-04-03T11:55:02;4.00;;;2.70;;
51525;SDS011;37611;51.794;21.590;2023-04-03T11:59:24;12.80;;;7.60;;
51525;SDS011;37611;51.794;21.590;2023-04-03T12:07:28;4.00;;;2.30;;
51525;SDS011;37611;51.794;21.590;2023-04-03T12:11:30;6.00;;;3.60;;
51525;SDS011;37611;51.794;21.590;2023-04-03T12:19:39;8.10;;;4.50;;
51525;SDS011;37611;51.794;21.590;2023-04-03T12:28:04;25.20;;;19.50;;
51525;SDS011;37611;51.794;21.590;2023-04-03T12:36:18;6.60;;;4.90;;
51525;SDS011;37611;51.794;21.590;2023-04-03T12:44:48;4.00;;;2.80;;
51525;SDS011;37611;51.794;21.590;2023-04-03T12:48:57;10.20;;;6.40;;
51525;SDS011;37611;51.794;21.590;2023-04-03T13:01:25;12.20;;;8.10;;
51525;SDS011;37611;51.794;21.590;2023-04-03T13:05:27;13.90;;;8.40;;
51525;SDS011;37611;51.794;21.590;2023-04-03T13:09:30;12.00;;;8.10;;
51525;SDS011;37611;51.794;21.590;2023-04-03T13:13:33;3.40;;;2.90;;
51525;SDS011;37611;51.794;21.590;2023-04-03T13:17:38;4.90;;;3.00;;
51525;SDS011;37611;51.794;21.590;2023-04-03T13:21:40;5.80;;;2.70;;
51525;SDS011;37611;51.794;21.590;2023-04-03T13:25:43;10.10;;;5.50;;
51525;SDS011;37611;51.794;21.590;2023-04-03T13:29:50;5.30;;;3.40;;
51525;SDS011;37611;51.794;21.590;2023-04-03T13:33:55;12.90;;;9.10;;
51525;SDS011;37611;51.794;21.590;2023-04-03T13:42:23;12.00;;;8.30;;
51525;SDS011;37611;51.794;21.590;2023-04-03T13:46:35;6.70;;;5.00;;
51525;SDS011;37611;51.794;21.590;2023-04-03T13:55:01;25.90;;;14.50;;
51525;SDS011;37611;51.794;21.590;2023-04-03T14:07:23;59.00;;;28.30;;
51525;SDS011;37611;51.794;21.590;2023-04-03T14:11:26;13.80;;;7.00;;
51525;SDS011;37611;51.794;21.590;2023-04-03T14:15:31;25.00;;;15.50;;
51525;SDS011;37611;51.794;21.590;2023-04-03T14:19:34;9.30;;;4.20;;
51525;SDS011;37611;51.794;21.590;2023-04-03T14:23:37;10.50;;;4.90;;
51525;SDS011;37611;51.794;21.590;2023-04-03T14:27:40;9.50;;;6.80;;
51525;SDS011;37611;51.794;21.590;2023-04-03T14:31:44;15.10;;;11.40;;
51525;SDS011;37611;51.794;21.590;2023-04-03T14:35:47;37.80;;;23.30;;
51525;SDS011;37611;51.794;21.590;2023-04-03T14:39:51;12.20;;;7.80;;
51525;SDS011;37611;51.794;21.590;2023-04-03T14:43:54;12.20;;;8.60;;
51525;SDS011;37611;51.794;21.590;2023-04-03T14:47:56;8.10;;;5.80;;
51525;SDS011;37611;51.794;21.590;2023-04-03T14:51:59;7.50;;;5.60;;
51525;SDS011;37611;51.794;21.590;2023-04-03T14:56:01;18.50;;;12.20;;
51525;SDS011;37611;51.794;21.590;2023-04-03T15:00:04;17.60;;;12.10;;
51525;SDS011;37611;51.794;21.590;2023-04-03T15:04:12;23.80;;;16.90;;
51525;SDS011;37611;51.794;21.590;2023-04-03T15:08:22;29.30;;;24.70;;
51525;SDS011;37611;51.794;21.590;2023-04-03T15:12:26;9.30;;;6.90;;
51525;SDS011;37611;51.794;21.590;2023-04-03T15:16:28;14.40;;;9.50;;
51525;SDS011;37611;51.794;21.590;2023-04-03T15:20:30;15.40;;;10.90;;
51525;SDS011;37611;51.794;21.590;2023-04-03T15:24:34;19.60;;;13.30;;
51525;SDS011;37611;51.794;21.590;2023-04-03T15:28:37;17.20;;;10.80;;
51525;SDS011;37611;51.794;21.590;2023-04-03T15:32:44;15.40;;;11.30;;
51525;SDS011;37611;51.794;21.590;2023-04-03T15:36:45;16.80;;;11.20;;
51525;SDS011;37611;51.794;21.590;2023-04-03T15:40:47;21.50;;;14.00;;
51525;SDS011;37611;51.794;21.590;2023-04-03T15:44:49;15.70;;;11.30;;
51525;SDS011;37611;51.794;21.590;2023-04-03T15:48:51;19.80;;;14.10;;
51525;SDS011;37611;51.794;21.590;2023-04-03T15:52:53;10.00;;;6.60;;
51525;SDS011;37611;51.794;21.590;2023-04-03T15:56:59;25.30;;;19.20;;
51525;SDS011;37611;51.794;21.590;2023-04-03T16:01:01;12.30;;;7.20;;
51525;SDS011;37611;51.794;21.590;2023-04-03T16:05:03;12.20;;;8.20;;
51525;SDS011;37611;51.794;21.590;2023-04-03T16:09:06;11.70;;;8.70;;
51525;SDS011;37611;51.794;21.590;2023-04-03T16:13:07;16.20;;;10.20;;
51525;SDS011;37611;51.794;21.590;2023-04-03T16:17:09;16.70;;;8.80;;
51525;SDS011;37611;51.794;21.590;2023-04-03T16:21:11;21.40;;;13.00;;
51525;SDS011;37611;51.794;21.590;2023-04-03T16:25:15;14.60;;;11.00;;
51525;SDS011;37611;51.794;21.590;2023-04-03T16:29:16;31.90;;;18.40;;
51525;SDS011;37611;51.794;21.590;2023-04-03T16:33:18;30.80;;;18.30;;
51525;SDS011;37611;51.794;21.590;2023-04-03T16:37:22;27.30;;;16.20;;
51525;SDS011;37611;51.794;21.590;2023-04-03T16:41:24;17.40;;;10.10;;
51525;SDS011;37611;51.794;21.590;2023-04-03T16:45:26;19.10;;;11.70;;
51525;SDS011;37611;51.794;21.590;2023-04-03T16:49:27;19.90;;;14.40;;
51525;SDS011;37611;51.794;21.590;2023-04-03T16:53:33;19.20;;;12.70;;
51525;SDS011;37611;51.794;21.590;2023-04-03T16:57:35;15.30;;;9.80;;
51525;SDS011;37611;51.794;21.590;2023-04-03T17:01:37;20.10;;;16.10;;
51525;SDS011;37611;51.794;21.590;2023-04-03T17:05:39;17.10;;;10.40;;
51525;SDS011;37611;51.794;21.590;2023-04-03T17:09:41;20.80;;;14.00;;
51525;SDS011;37611;51.794;21.590;2023-04-03T17:13:43;59.30;;;30.40;;
51525;SDS011;37611;51.794;21.590;2023-04-03T17:17:44;45.80;;;23.70;;
51525;SDS011;37611;51.794;21.590;2023-04-03T17:21:47;26.60;;;14.90;;
51525;SDS011;37611;51.794;21.590;2023-04-03T17:25:49;55.00;;;27.50;;
51525;SDS011;37611;51.794;21.590;2023-04-03T17:29:51;69.00;;;32.30;;
51525;SDS011;37611;51.794;21.590;2023-04-03T17:33:53;38.90;;;19.90;;
51525;SDS011;37611;51.794;21.590;2023-04-03T17:37:54;33.30;;;17.60;;
51525;SDS011;37611;51.794;21.590;2023-04-03T17:41:56;22.30;;;11.70;;
51525;SDS011;37611;51.794;21.590;2023-04-03T17:45:59;22.20;;;13.30;;
51525;SDS011;37611;51.794;21.590;2023-04-03T17:50:04;43.20;;;24.20;;
51525;SDS011;37611;51.794;21.590;2023-04-03T17:54:07;45.80;;;27.50;;
51525;SDS011;37611;51.794;21.590;2023-04-03T17:58:08;35.40;;;18.80;;
51525;SDS011;37611;51.794;21.590;2023-04-03T18:02:11;47.70;;;26.90;;
51525;SDS011;37611;51.794;21.590;2023-04-03T18:06:14;30.20;;;18.10;;
51525;SDS011;37611;51.794;21.590;2023-04-03T18:10:18;30.80;;;17.40;;
51525;SDS011;37611;51.794;21.590;2023-04-03T18:14:20;26.00;;;13.80;;
51525;SDS011;37611;51.794;21.590;2023-04-03T18:18:24;25.60;;;17.30;;
51525;SDS011;37611;51.794;21.590;2023-04-03T18:22:26;25.10;;;14.30;;
51525;SDS011;37611;51.794;21.590;2023-04-03T18:26:29;22.00;;;12.80;;
51525;SDS011;37611;51.794;21.590;2023-04-03T18:30:31;23.10;;;14.20;;
51525;SDS011;37611;51.794;21.590;2023-04-03T18:34:35;12.60;;;8.40;;
51525;SDS011;37611;51.794;21.590;2023-04-03T18:38:37;9.80;;;6.70;;
51525;SDS011;37611;51.794;21.590;2023-04-03T18:42:38;10.90;;;7.10;;
51525;SDS011;37611;51.794;21.590;2023-04-03T18:46:42;15.30;;;9.30;;
51525;SDS011;37611;51.794;21.590;2023-04-03T18:50:44;16.20;;;8.60;;
51525;SDS011;37611;51.794;21.590;2023-04-03T18:54:46;15.80;;;8.70;;
51525;SDS011;37611;51.794;21.590;2023-04-03T18:58:47;15.70;;;9.60;;
51525;SDS011;37611;51.794;21.590;2023-04-03T19:02:49;13.00;;;8.20;;
51525;SDS011;37611;51.794;21.590;2023-04-03T19:06:51;25.10;;;16.40;;
51525;SDS011;37611;51.794;21.590;2023-04-03T19:10:53;42.30;;;24.70;;
51525;SDS011;37611;51.794;21.590;2023-04-03T19:14:55;45.70;;;27.00;;
51525;SDS011;37611;51.794;21.590;2023-04-03T19:18:57;35.50;;;24.60;;
51525;SDS011;37611;51.794;21.590;2023-04-03T19:23:00;43.30;;;27.60;;
51525;SDS011;37611;51.794;21.590;2023-04-03T19:27:01;27.40;;;18.00;;
51525;SDS011;37611;51.794;21.590;2023-04-03T19:31:16;27.20;;;16.60;;
51525;SDS011;37611;51.794;21.590;2023-04-03T19:35:21;33.10;;;21.60;;
51525;SDS011;37611;51.794;21.590;2023-04-03T19:39:22;29.90;;;20.10;;
51525;SDS011;37611;51.794;21.590;2023-04-03T19:43:24;27.50;;;17.00;;
51525;SDS011;37611;51.794;21.590;2023-04-03T19:47:26;22.90;;;13.90;;
51525;SDS011;37611;51.794;21.590;2023-04-03T19:51:29;29.50;;;16.70;;
51525;SDS011;37611;51.794;21.590;2023-04-03T19:55:31;27.70;;;17.10;;
51525;SDS011;37611;51.794;21.590;2023-04-03T19:59:33;26.20;;;15.30;;
51525;SDS011;37611;51.794;21.590;2023-04-03T20:03:35;31.90;;;21.50;;
51525;SDS011;37611;51.794;21.590;2023-04-03T20:07:36;102.90;;;59.50;;
51525;SDS011;37611;51.794;21.590;2023-04-03T20:11:38;86.70;;;45.80;;
51525;SDS011;37611;51.794;21.590;2023-04-03T20:15:43;64.30;;;35.80;;
51525;SDS011;37611;51.794;21.590;2023-04-03T20:19:45;85.90;;;51.10;;
51525;SDS011;37611;51.794;21.590;2023-04-03T20:23:47;74.80;;;40.70;;
51525;SDS011;37611;51.794;21.590;2023-04-03T20:27:50;89.60;;;51.90;;
51525;SDS011;37611;51.794;21.590;2023-04-03T20:31:54;72.30;;;43.50;;
51525;SDS011;37611;51.794;21.590;2023-04-03T20:35:57;39.90;;;25.10;;
51525;SDS011;37611;51.794;21.590;2023-04-03T20:39:58;24.30;;;17.00;;
51525;SDS011;37611;51.794;21.590;2023-04-03T20:44:01;28.50;;;17.50;;
51525;SDS011;37611;51.794;21.590;2023-04-03T20:48:03;26.50;;;15.00;;
51525;SDS011;37611;51.794;21.590;2023-04-03T20:52:06;33.40;;;23.90;;
51525;SDS011;37611;51.794;21.590;2023-04-03T20:56:08;24.60;;;15.30;;
51525;SDS011;37611;51.794;21.590;2023-04-03T21:00:10;15.80;;;10.40;;
51525;SDS011;37611;51.794;21.590;2023-04-03T21:04:22;13.40;;;9.00;;
51525;SDS011;37611;51.794;21.590;2023-04-03T21:22:23;16.20;;;7.60;;
51525;SDS011;37611;51.794;21.590;2023-04-03T21:26:25;13.10;;;7.10;;
51525;SDS011;37611;51.794;21.590;2023-04-03T21:30:27;12.10;;;6.50;;
51525;SDS011;37611;51.794;21.590;2023-04-03T21:34:30;9.90;;;6.90;;
51525;SDS011;37611;51.794;21.590;2023-04-03T21:38:33;13.80;;;7.50;;
51525;SDS011;37611;51.794;21.590;2023-04-03T21:42:41;11.50;;;6.00;;
51525;SDS011;37611;51.794;21.590;2023-04-03T21:46:48;11.20;;;7.00;;
51525;SDS011;37611;51.794;21.590;2023-04-03T21:51:03;10.00;;;6.70;;
51525;SDS011;37611;51.794;21.590;2023-04-03T21:55:08;12.60;;;7.20;;
51525;SDS011;37611;51.794;21.590;2023-04-03T21:59:12;12.30;;;7.70;;
51525;SDS011;37611;51.794;21.590;2023-04-03T22:03:19;12.00;;;7.70;;
51525;SDS011;37611;51.794;21.590;2023-04-03T22:07:24;16.90;;;9.00;;
51525;SDS011;37611;51.794;21.590;2023-04-03T22:11:26;15.70;;;8.50;;
51525;SDS011;37611;51.794;21.590;2023-04-03T22:15:29;12.30;;;7.70;;
51525;SDS011;37611;51.794;21.590;2023-04-03T22:19:31;15.20;;;8.30;;
51525;SDS011;37611;51.794;21.590;2023-04-03T22:23:33;14.00;;;8.00;;
51525;SDS011;37611;51.794;21.590;2023-04-03T22:27:35;13.00;;;8.30;;
51525;SDS011;37611;51.794;21.590;2023-04-03T22:31:36;14.10;;;8.30;;
51525;SDS011;37611;51.794;21.590;2023-04-03T22:35:44;16.00;;;9.20;;
51525;SDS011;37611;51.794;21.590;2023-04-03T22:39:49;15.90;;;8.90;;
51525;SDS011;37611;51.794;21.590;2023-04-03T22:43:51;13.30;;;8.50;;
51525;SDS011;37611;51.794;21.590;2023-04-03T22:47:53;12.90;;;8.50;;
51525;SDS011;37611;51.794;21.590;2023-04-03T22:51:58;10.90;;;6.90;;
51525;SDS011;37611;51.794;21.590;2023-04-03T22:56:01;10.70;;;6.40;;
51525;SDS011;37611;51.794;21.590;2023-04-03T23:00:05;10.80;;;6.80;;
51525;SDS011;37611;51.794;21.590;2023-04-03T23:04:08;10.20;;;6.30;;
51525;SDS011;37611;51.794;21.590;2023-04-03T23:08:10;8.90;;;6.50;;
51525;SDS011;37611;51.794;21.590;2023-04-03T23:12:12;11.00;;;7.10;;
51525;SDS011;37611;51.794;21.590;2023-04-03T23:16:13;9.80;;;6.30;;
51525;SDS011;37611;51.794;21.590;2023-04-03T23:20:15;12.20;;;8.30;;
51525;SDS011;37611;51.794;21.590;2023-04-03T23:24:17;13.60;;;6.40;;
51525;SDS011;37611;51.794;21.590;2023-04-03T23:28:20;10.60;;;6.00;;
51525;SDS011;37611;51.794;21.590;2023-04-03T23:32:22;11.90;;;6.70;;
51525;SDS011;37611;51.794;21.590;2023-04-03T23:36:24;9.70;;;6.40;;
51525;SDS011;37611;51.794;21.590;2023-04-03T23:40:25;10.90;;;6.50;;
51525;SDS011;37611;51.794;21.590;2023-04-03T23:44:28;11.10;;;6.00;;
51525;SDS011;37611;51.794;21.590;2023-04-03T23:48:30;9.50;;;5.50;;
51525;SDS011;37611;51.794;21.590;2023-04-03T23:52:31;11.30;;;6.10;;
51525;SDS011;37611;51.794;21.590;2023-04-03T23:56:33;9.50;;;5.70;;
